sensor_id;sensor_type;location;lat;lon;timestamp;pressure;altitude;pressure_sealevel;temperature;humidity
59608;BME280;45426;44.726;10.390;2022-12-07T00:01:12;100449.88;;;6.63;100.00
59608;BME280;45426;44.726;10.390;2022-12-07T00:03:39;100450.09;;;6.89;100.00
59608;BME280;45426;44.726;10.390;2022-12-07T00:06:07;100443.63;;;6.76;100.00
59608;BME280;45426;44.726;10.390;2022-12-07T00:08:34;100449.28;;;6.66;100.00
59608;BME280;45426;44.726;10.390;2022-12-07T00:11:02;100443.84;;;6.44;100.00
59608;BME280;45426;44.726;10.390;2022-12-07T00:13:29;100452.75;;;6.30;100.00
59608;BME280;45426;44.726;10.390;2022-12-07T00:15:55;100445.56;;;6.62;100.00
59608;BME280;45426;44.726;10.390;2022-12-07T00:18:21;100433.13;;;6.75;100.00
59608;BME280;45426;44.726;10.390;2022-12-07T00:20:46;100419.88;;;6.87;100.00
59608;BME280;45426;44.726;10.390;2022-12-07T00:23:11;100411.69;;;7.24;100.00
59608;BME280;45426;44.726;10.390;2022-12-07T00:25:37;100412.34;;;6.98;100.00
59608;BME280;45426;44.726;10.390;2022-12-07T00:28:02;100417.00;;;6.61;100.00
59608;BME280;45426;44.726;10.390;2022-12-07T00:30:28;100421.44;;;6.43;100.00
59608;BME280;45426;44.726;10.390;2022-12-07T00:32:53;100411.03;;;6.50;100.00
59608;BME280;45426;44.726;10.390;2022-12-07T00:35:19;100408.28;;;6.41;100.00
59608;BME280;45426;44.726;10.390;2022-12-07T00:37:44;100404.22;;;6.53;100.00
59608;BME280;45426;44.726;10.390;2022-12-07T00:40:10;100397.97;;;7.11;100.00
59608;BME280;45426;44.726;10.390;2022-12-07T00:42:35;100396.66;;;7.40;100.00
59608;BME280;45426;44.726;10.390;2022-12-07T00:45:00;100393.44;;;6.98;100.00
59608;BME280;45426;44.726;10.390;2022-12-07T00:47:26;100402.50;;;6.57;100.00
59608;BME280;45426;44.726;10.390;2022-12-07T00:49:51;100395.03;;;6.54;100.00
59608;BME280;45426;44.726;10.390;2022-12-07T00:52:16;100402.63;;;6.52;100.00
59608;BME280;45426;44.726;10.390;2022-12-07T00:54:42;100395.03;;;6.54;100.00
59608;BME280;45426;44.726;10.390;2022-12-07T00:57:07;100388.81;;;6.17;100.00
59608;BME280;45426;44.726;10.390;2022-12-07T00:59:33;100400.66;;;6.44;100.00
59608;BME280;45426;44.726;10.390;2022-12-07T01:01:58;100401.41;;;6.58;100.00
59608;BME280;45426;44.726;10.390;2022-12-07T01:04:24;100398.56;;;6.40;100.00
59608;BME280;45426;44.726;10.390;2022-12-07T01:06:49;100401.31;;;6.13;100.00
59608;BME280;45426;44.726;10.390;2022-12-07T01:09:15;100392.53;;;6.21;100.00
59608;BME280;45426;44.726;10.390;2022-12-07T01:11:40;100395.28;;;6.44;100.00
59608;BME280;45426;44.726;10.390;2022-12-07T01:14:06;100390.66;;;7.12;100.00
59608;BME280;45426;44.726;10.390;2022-12-07T01:16:32;100378.63;;;6.95;100.00
59608;BME280;45426;44.726;10.390;2022-12-07T01:18:58;100379.31;;;7.32;100.00
59608;BME280;45426;44.726;10.390;2022-12-07T01:21:30;100383.63;;;7.33;100.00
59608;BME280;45426;44.726;10.390;2022-12-07T01:23:57;100393.09;;;7.22;100.00
59608;BME280;45426;44.726;10.390;2022-12-07T01:26:24;100382.66;;;7.38;100.00
59608;BME280;45426;44.726;10.390;2022-12-07T01:28:51;100390.19;;;7.50;100.00
59608;BME280;45426;44.726;10.390;2022-12-07T01:31:19;100391.19;;;7.63;100.00
59608;BME280;45426;44.726;10.390;2022-12-07T01:33:47;100397.91;;;7.34;100.00
59608;BME280;45426;44.726;10.390;2022-12-07T01:36:20;100383.84;;;7.54;100.00
59608;BME280;45426;44.726;10.390;2022-12-07T01:38:47;100390.91;;;7.73;100.00
59608;BME280;45426;44.726;10.390;2022-12-07T01:41:13;100395.91;;;7.48;100.00
59608;BME280;45426;44.726;10.390;2022-12-07T01:44:11;100391.19;;;7.63;100.00
59608;BME280;45426;44.726;10.390;2022-12-07T01:46:37;100382.88;;;7.50;100.00
59608;BME280;45426;44.726;10.390;2022-12-07T01:49:05;100383.78;;;7.37;100.00
59608;BME280;45426;44.726;10.390;2022-12-07T01:51:31;100394.69;;;7.23;100.00
59608;BME280;45426;44.726;10.390;2022-12-07T01:53:57;100388.56;;;7.40;100.00
59608;BME280;45426;44.726;10.390;2022-12-07T01:56:26;100378.72;;;7.44;100.00
59608;BME280;45426;44.726;10.390;2022-12-07T01:58:52;100376.94;;;7.39;100.00
59608;BME280;45426;44.726;10.390;2022-12-07T02:01:20;100382.59;;;7.21;100.00
59608;BME280;45426;44.726;10.390;2022-12-07T02:03:46;100382.09;;;7.18;100.00
59608;BME280;45426;44.726;10.390;2022-12-07T02:06:16;100377.84;;;7.66;100.00
59608;BME280;45426;44.726;10.390;2022-12-07T02:08:43;100377.41;;;7.02;100.00
59608;BME280;45426;44.726;10.390;2022-12-07T02:11:09;100377.66;;;7.54;100.00
59608;BME280;45426;44.726;10.390;2022-12-07T02:13:37;100373.06;;;7.63;100.00
59608;BME280;45426;44.726;10.390;2022-12-07T02:21:51;100362.91;;;7.69;100.00
59608;BME280;45426;44.726;10.390;2022-12-07T02:30:17;100361.31;;;7.68;100.00
59608;BME280;45426;44.726;10.390;2022-12-07T02:33:05;100359.28;;;7.82;100.00
59608;BME280;45426;44.726;10.390;2022-12-07T02:35:33;100360.56;;;7.36;100.00
59608;BME280;45426;44.726;10.390;2022-12-07T02:38:43;100354.59;;;7.16;100.00
59608;BME280;45426;44.726;10.390;2022-12-07T02:41:20;100352.41;;;7.27;100.00
59608;BME280;45426;44.726;10.390;2022-12-07T02:43:56;100357.91;;;7.13;100.00
59608;BME280;45426;44.726;10.390;2022-12-07T02:46:32;100362.00;;;7.02;100.00
59608;BME280;45426;44.726;10.390;2022-12-07T02:48:59;100355.47;;;7.03;100.00
59608;BME280;45426;44.726;10.390;2022-12-07T02:51:27;100348.56;;;7.60;100.00
59608;BME280;45426;44.726;10.390;2022-12-07T02:53:54;100352.56;;;7.71;100.00
59608;BME280;45426;44.726;10.390;2022-12-07T02:59:33;100355.91;;;7.68;100.00
59608;BME280;45426;44.726;10.390;2022-12-07T03:04:53;100347.91;;;7.54;100.00
59608;BME280;45426;44.726;10.390;2022-12-07T03:07:39;100352.50;;;7.53;100.00
59608;BME280;45426;44.726;10.390;2022-12-07T03:10:13;100346.59;;;7.43;100.00
59608;BME280;45426;44.726;10.390;2022-12-07T03:12:48;100338.38;;;7.56;100.00
59608;BME280;45426;44.726;10.390;2022-12-07T03:16:13;100341.56;;;7.58;100.00
59608;BME280;45426;44.726;10.390;2022-12-07T03:18:15;100329.00;;;7.63;100.00
59608;BME280;45426;44.726;10.390;2022-12-07T03:20:43;100325.63;;;7.48;100.00
59608;BME280;45426;44.726;10.390;2022-12-07T03:23:10;100324.72;;;7.13;100.00
59608;BME280;45426;44.726;10.390;2022-12-07T03:25:45;100331.88;;;7.17;100.00
59608;BME280;45426;44.726;10.390;2022-12-07T03:28:13;100328.00;;;7.50;100.00
59608;BME280;45426;44.726;10.390;2022-12-07T03:30:55;100336.50;;;7.66;100.00
59608;BME280;45426;44.726;10.390;2022-12-07T03:33:31;100322.31;;;7.60;100.00
59608;BME280;45426;44.726;10.390;2022-12-07T03:36:32;100325.69;;;7.66;100.00
59608;BME280;45426;44.726;10.390;2022-12-07T03:39:11;100318.47;;;7.44;100.00
59608;BME280;45426;44.726;10.390;2022-12-07T03:41:38;100320.78;;;7.28;100.00
59608;BME280;45426;44.726;10.390;2022-12-07T03:44:04;100317.44;;;7.22;100.00
59608;BME280;45426;44.726;10.390;2022-12-07T03:49:28;100325.63;;;7.08;100.00
59608;BME280;45426;44.726;10.390;2022-12-07T03:52:02;100321.72;;;7.23;100.00
59608;BME280;45426;44.726;10.390;2022-12-07T03:54:39;100324.69;;;6.82;100.00
59608;BME280;45426;44.726;10.390;2022-12-07T03:57:07;100315.09;;;7.38;100.00
59608;BME280;45426;44.726;10.390;2022-12-07T03:59:34;100319.06;;;7.32;100.00
59608;BME280;45426;44.726;10.390;2022-12-07T04:02:04;100319.69;;;6.97;100.00
59608;BME280;45426;44.726;10.390;2022-12-07T04:04:30;100310.03;;;7.45;100.00
59608;BME280;45426;44.726;10.390;2022-12-07T04:06:56;100314.84;;;7.66;100.00
59608;BME280;45426;44.726;10.390;2022-12-07T04:09:22;100309.78;;;7.73;100.00
59608;BME280;45426;44.726;10.390;2022-12-07T04:11:47;100316.97;;;6.89;100.00
59608;BME280;45426;44.726;10.390;2022-12-07T04:14:13;100312.47;;;6.84;100.00
59608;BME280;45426;44.726;10.390;2022-12-07T04:16:45;100314.72;;;6.59;100.00
59608;BME280;45426;44.726;10.390;2022-12-07T04:19:11;100304.59;;;7.28;100.00
59608;BME280;45426;44.726;10.390;2022-12-07T04:21:37;100301.84;;;6.88;100.00
59608;BME280;45426;44.726;10.390;2022-12-07T04:24:03;100296.97;;;7.30;100.00
59608;BME280;45426;44.726;10.390;2022-12-07T04:26:29;100302.22;;;6.95;100.00
59608;BME280;45426;44.726;10.390;2022-12-07T04:28:54;100313.19;;;6.98;100.00
59608;BME280;45426;44.726;10.390;2022-12-07T04:31:19;100315.09;;;7.38;100.00
59608;BME280;45426;44.726;10.390;2022-12-07T04:33:45;100310.19;;;7.40;100.00
59608;BME280;45426;44.726;10.390;2022-12-07T04:36:10;100310.94;;;7.32;100.00
59608;BME280;45426;44.726;10.390;2022-12-07T04:38:36;100306.38;;;7.41;100.00
59608;BME280;45426;44.726;10.390;2022-12-07T04:41:05;100303.28;;;7.25;100.00
59608;BME280;45426;44.726;10.390;2022-12-07T04:43:31;100306.38;;;7.41;100.00
59608;BME280;45426;44.726;10.390;2022-12-07T04:45:56;100305.75;;;7.53;100.00
59608;BME280;45426;44.726;10.390;2022-12-07T04:48:22;100308.03;;;7.19;100.00
59608;BME280;45426;44.726;10.390;2022-12-07T04:50:48;100317.22;;;6.56;100.00
59608;BME280;45426;44.726;10.390;2022-12-07T04:53:15;100317.44;;;7.22;100.00
59608;BME280;45426;44.726;10.390;2022-12-07T04:55:40;100309.56;;;7.43;100.00
59608;BME280;45426;44.726;10.390;2022-12-07T04:58:06;100318.97;;;7.14;100.00
59608;BME280;45426;44.726;10.390;2022-12-07T05:00:32;100316.41;;;7.49;100.00
59608;BME280;45426;44.726;10.390;2022-12-07T05:02:57;100308.13;;;7.37;100.00
59608;BME280;45426;44.726;10.390;2022-12-07T05:05:22;100302.81;;;7.23;100.00
59608;BME280;45426;44.726;10.390;2022-12-07T05:07:49;100307.59;;;7.35;100.00
59608;BME280;45426;44.726;10.390;2022-12-07T05:10:14;100315.03;;;7.21;100.00
59608;BME280;45426;44.726;10.390;2022-12-07T05:12:40;100316.34;;;7.32;100.00
59608;BME280;45426;44.726;10.390;2022-12-07T05:15:05;100315.88;;;7.30;100.00
59608;BME280;45426;44.726;10.390;2022-12-07T05:17:31;100316.34;;;7.32;100.00
59608;BME280;45426;44.726;10.390;2022-12-07T05:19:56;100312.41;;;6.98;100.00
59608;BME280;45426;44.726;10.390;2022-12-07T05:22:22;100308.25;;;7.41;100.00
59608;BME280;45426;44.726;10.390;2022-12-07T05:24:47;100307.66;;;7.44;100.00
59608;BME280;45426;44.726;10.390;2022-12-07T05:27:13;100307.28;;;7.36;100.00
59608;BME280;45426;44.726;10.390;2022-12-07T05:29:38;100304.78;;;7.40;100.00
59608;BME280;45426;44.726;10.390;2022-12-07T05:32:03;100305.69;;;7.27;100.00
59608;BME280;45426;44.726;10.390;2022-12-07T05:34:29;100297.31;;;7.37;100.00
59608;BME280;45426;44.726;10.390;2022-12-07T05:36:54;100303.63;;;7.32;100.00
59608;BME280;45426;44.726;10.390;2022-12-07T05:39:19;100302.00;;;7.23;100.00
59608;BME280;45426;44.726;10.390;2022-12-07T05:41:45;100303.88;;;7.13;100.00
59608;BME280;45426;44.726;10.390;2022-12-07T05:44:29;100309.41;;;7.08;100.00
59608;BME280;45426;44.726;10.390;2022-12-07T05:46:54;100308.81;;;7.11;100.00
59608;BME280;45426;44.726;10.390;2022-12-07T05:49:20;100310.19;;;7.00;100.00
59608;BME280;45426;44.726;10.390;2022-12-07T05:51:45;100306.72;;;6.77;100.00
59608;BME280;45426;44.726;10.390;2022-12-07T05:54:10;100314.34;;;7.06;100.00
59608;BME280;45426;44.726;10.390;2022-12-07T05:56:36;100321.63;;;6.74;100.00
59608;BME280;45426;44.726;10.390;2022-12-07T05:59:01;100322.31;;;6.80;100.00
59608;BME280;45426;44.726;10.390;2022-12-07T06:01:45;100330.41;;;7.11;100.00
59608;BME280;45426;44.726;10.390;2022-12-07T06:04:11;100318.22;;;7.23;100.00
59608;BME280;45426;44.726;10.390;2022-12-07T06:06:36;100322.09;;;7.39;100.00
59608;BME280;45426;44.726;10.390;2022-12-07T06:09:02;100323.16;;;7.21;100.00
59608;BME280;45426;44.726;10.390;2022-12-07T06:11:28;100324.06;;;7.07;100.00
59608;BME280;45426;44.726;10.390;2022-12-07T06:14:12;100325.84;;;6.89;100.00
59608;BME280;45426;44.726;10.390;2022-12-07T06:16:37;100330.25;;;7.08;100.00
59608;BME280;45426;44.726;10.390;2022-12-07T06:19:02;100330.53;;;7.06;100.00
59608;BME280;45426;44.726;10.390;2022-12-07T06:21:28;100326.78;;;7.16;100.00
59608;BME280;45426;44.726;10.390;2022-12-07T06:23:53;100324.22;;;7.11;100.00
59608;BME280;45426;44.726;10.390;2022-12-07T06:26:19;100324.72;;;7.13;100.00
59608;BME280;45426;44.726;10.390;2022-12-07T06:28:45;100323.56;;;7.05;100.00
59608;BME280;45426;44.726;10.390;2022-12-07T06:31:10;100326.81;;;7.25;100.00
59608;BME280;45426;44.726;10.390;2022-12-07T06:33:36;100320.75;;;7.19;100.00
59608;BME280;45426;44.726;10.390;2022-12-07T06:36:01;100329.81;;;6.83;100.00
59608;BME280;45426;44.726;10.390;2022-12-07T06:38:26;100326.22;;;6.96;100.00
59608;BME280;45426;44.726;10.390;2022-12-07T06:40:52;100327.31;;;6.64;100.00
59608;BME280;45426;44.726;10.390;2022-12-07T06:43:17;100337.22;;;6.77;100.00
59608;BME280;45426;44.726;10.390;2022-12-07T06:45:43;100338.81;;;6.56;100.00
59608;BME280;45426;44.726;10.390;2022-12-07T06:48:08;100339.75;;;6.51;100.00
59608;BME280;45426;44.726;10.390;2022-12-07T06:50:34;100335.88;;;6.66;100.00
59608;BME280;45426;44.726;10.390;2022-12-07T06:52:59;100336.56;;;6.72;100.00
59608;BME280;45426;44.726;10.390;2022-12-07T06:55:24;100331.00;;;6.77;100.00
59608;BME280;45426;44.726;10.390;2022-12-07T06:57:50;100344.78;;;6.08;100.00
59608;BME280;45426;44.726;10.390;2022-12-07T07:00:15;100347.97;;;6.46;100.00
59608;BME280;45426;44.726;10.390;2022-12-07T07:02:41;100345.69;;;6.85;100.00
59608;BME280;45426;44.726;10.390;2022-12-07T07:05:06;100353.06;;;6.48;100.00
59608;BME280;45426;44.726;10.390;2022-12-07T07:07:32;100349.72;;;6.51;100.00
59608;BME280;45426;44.726;10.390;2022-12-07T07:09:57;100363.06;;;6.47;100.00
59608;BME280;45426;44.726;10.390;2022-12-07T07:12:23;100369.47;;;6.37;100.00
59608;BME280;45426;44.726;10.390;2022-12-07T07:14:48;100365.31;;;6.54;100.00
59608;BME280;45426;44.726;10.390;2022-12-07T07:17:13;100370.78;;;6.40;100.00
59608;BME280;45426;44.726;10.390;2022-12-07T07:19:39;100371.75;;;6.08;100.00
59608;BME280;45426;44.726;10.390;2022-12-07T07:22:05;100367.31;;;6.26;100.00
59608;BME280;45426;44.726;10.390;2022-12-07T07:24:30;100357.31;;;6.63;100.00
59608;BME280;45426;44.726;10.390;2022-12-07T07:26:55;100349.75;;;6.73;100.00
59608;BME280;45426;44.726;10.390;2022-12-07T07:29:21;100348.31;;;6.98;100.00
59608;BME280;45426;44.726;10.390;2022-12-07T07:31:46;100352.38;;;6.87;100.00
59608;BME280;45426;44.726;10.390;2022-12-07T07:34:12;100354.25;;;7.09;100.00
59608;BME280;45426;44.726;10.390;2022-12-07T07:36:37;100359.28;;;7.02;100.00
59608;BME280;45426;44.726;10.390;2022-12-07T07:39:03;100370.28;;;6.38;100.00
59608;BME280;45426;44.726;10.390;2022-12-07T07:41:28;100370.84;;;6.94;100.00
59608;BME280;45426;44.726;10.390;2022-12-07T07:43:54;100359.69;;;7.18;100.00
59608;BME280;45426;44.726;10.390;2022-12-07T07:46:19;100361.66;;;6.72;100.00
59608;BME280;45426;44.726;10.390;2022-12-07T07:48:44;100373.63;;;6.57;100.00
59608;BME280;45426;44.726;10.390;2022-12-07T07:51:10;100378.03;;;6.53;100.00
59608;BME280;45426;44.726;10.390;2022-12-07T07:53:35;100389.59;;;6.31;100.00
59608;BME280;45426;44.726;10.390;2022-12-07T07:56:01;100388.06;;;6.39;100.00
59608;BME280;45426;44.726;10.390;2022-12-07T07:58:27;100384.44;;;6.21;100.00
59608;BME280;45426;44.726;10.390;2022-12-07T08:00:52;100388.84;;;6.39;100.00
59608;BME280;45426;44.726;10.390;2022-12-07T08:03:18;100391.03;;;6.15;100.00
59608;BME280;45426;44.726;10.390;2022-12-07T08:05:43;100395.91;;;6.27;100.00
59608;BME280;45426;44.726;10.390;2022-12-07T08:08:09;100401.66;;;6.34;100.00
59608;BME280;45426;44.726;10.390;2022-12-07T08:10:34;100386.13;;;6.76;100.00
59608;BME280;45426;44.726;10.390;2022-12-07T08:13:00;100396.16;;;6.39;100.00
59608;BME280;45426;44.726;10.390;2022-12-07T08:15:43;100403.56;;;6.33;100.00
59608;BME280;45426;44.726;10.390;2022-12-07T08:18:09;100405.38;;;6.38;100.00
59608;BME280;45426;44.726;10.390;2022-12-07T08:20:36;100401.47;;;6.30;100.00
59608;BME280;45426;44.726;10.390;2022-12-07T08:23:03;100394.03;;;6.13;100.00
59608;BME280;45426;44.726;10.390;2022-12-07T08:25:29;100392.94;;;6.96;100.00
59608;BME280;45426;44.726;10.390;2022-12-07T08:27:55;100382.78;;;7.24;100.00
59608;BME280;45426;44.726;10.390;2022-12-07T08:30:21;100389.91;;;7.20;100.00
59608;BME280;45426;44.726;10.390;2022-12-07T08:32:47;100392.03;;;7.32;100.00
59608;BME280;45426;44.726;10.390;2022-12-07T08:35:13;100392.41;;;7.48;100.00
59608;BME280;45426;44.726;10.390;2022-12-07T08:37:39;100404.34;;;6.93;100.00
59608;BME280;45426;44.726;10.390;2022-12-07T08:40:06;100394.50;;;7.51;100.00
59608;BME280;45426;44.726;10.390;2022-12-07T08:42:32;100391.66;;;7.56;100.00
59608;BME280;45426;44.726;10.390;2022-12-07T08:45:06;100389.31;;;7.72;100.00
59608;BME280;45426;44.726;10.390;2022-12-07T08:47:34;100384.19;;;7.62;100.00
59608;BME280;45426;44.726;10.390;2022-12-07T08:50:01;100393.41;;;8.27;100.00
59608;BME280;45426;44.726;10.390;2022-12-07T08:52:29;100400.38;;;8.19;100.00
59608;BME280;45426;44.726;10.390;2022-12-07T08:54:55;100400.91;;;8.21;100.00
59608;BME280;45426;44.726;10.390;2022-12-07T08:57:21;100396.41;;;8.08;100.00
59608;BME280;45426;44.726;10.390;2022-12-07T08:59:46;100403.91;;;8.20;100.00
59608;BME280;45426;44.726;10.390;2022-12-07T09:02:12;100406.66;;;7.71;100.00
59608;BME280;45426;44.726;10.390;2022-12-07T09:04:37;100408.19;;;7.54;100.00
59608;BME280;45426;44.726;10.390;2022-12-07T09:07:03;100407.84;;;7.47;100.00
59608;BME280;45426;44.726;10.390;2022-12-07T09:09:29;100406.44;;;7.58;100.00
59608;BME280;45426;44.726;10.390;2022-12-07T09:11:54;100413.84;;;7.84;100.00
59608;BME280;45426;44.726;10.390;2022-12-07T09:14:20;100412.47;;;7.55;100.00
59608;BME280;45426;44.726;10.390;2022-12-07T09:16:46;100422.16;;;7.96;100.00
59608;BME280;45426;44.726;10.390;2022-12-07T09:19:11;100406.09;;;7.91;100.00
59608;BME280;45426;44.726;10.390;2022-12-07T09:21:36;100411.28;;;7.79;100.00
59608;BME280;45426;44.726;10.390;2022-12-07T09:24:02;100403.75;;;8.33;100.00
59608;BME280;45426;44.726;10.390;2022-12-07T09:26:27;100412.66;;;8.16;100.00
59608;BME280;45426;44.726;10.390;2022-12-07T09:28:53;100411.34;;;7.96;100.00
59608;BME280;45426;44.726;10.390;2022-12-07T09:31:18;100403.44;;;8.18;100.00
59608;BME280;45426;44.726;10.390;2022-12-07T09:33:43;100409.38;;;7.71;100.00
59608;BME280;45426;44.726;10.390;2022-12-07T09:36:09;100406.47;;;8.33;100.00
59608;BME280;45426;44.726;10.390;2022-12-07T09:38:35;100409.63;;;8.01;100.00
59608;BME280;45426;44.726;10.390;2022-12-07T09:41:07;100418.38;;;8.06;100.00
59608;BME280;45426;44.726;10.390;2022-12-07T09:43:35;100409.00;;;8.30;100.00
59608;BME280;45426;44.726;10.390;2022-12-07T09:46:01;100406.44;;;8.16;100.00
59608;BME280;45426;44.726;10.390;2022-12-07T09:48:34;100411.91;;;7.67;100.00
59608;BME280;45426;44.726;10.390;2022-12-07T09:51:02;100401.50;;;8.09;100.00
59608;BME280;45426;44.726;10.390;2022-12-07T09:53:37;100397.28;;;8.61;100.00
59608;BME280;45426;44.726;10.390;2022-12-07T09:56:03;100389.56;;;9.53;100.00
59608;BME280;45426;44.726;10.390;2022-12-07T09:58:31;100381.06;;;9.25;100.00
59608;BME280;45426;44.726;10.390;2022-12-07T10:01:05;100385.00;;;9.37;100.00
59608;BME280;45426;44.726;10.390;2022-12-07T10:03:37;100386.13;;;9.36;100.00
59608;BME280;45426;44.726;10.390;2022-12-07T10:06:05;100379.78;;;9.91;100.00
59608;BME280;45426;44.726;10.390;2022-12-07T10:08:31;100384.88;;;9.93;100.00
59608;BME280;45426;44.726;10.390;2022-12-07T10:10:57;100373.50;;;9.78;100.00
59608;BME280;45426;44.726;10.390;2022-12-07T10:13:44;100368.00;;;9.57;100.00
59608;BME280;45426;44.726;10.390;2022-12-07T10:18:51;100360.41;;;10.01;100.00
59608;BME280;45426;44.726;10.390;2022-12-07T10:21:22;100376.59;;;10.40;100.00
59608;BME280;45426;44.726;10.390;2022-12-07T10:24:14;100380.34;;;9.46;100.00
59608;BME280;45426;44.726;10.390;2022-12-07T10:31:45;100365.84;;;9.42;100.00
59608;BME280;45426;44.726;10.390;2022-12-07T10:34:24;100362.38;;;9.71;100.00
59608;BME280;45426;44.726;10.390;2022-12-07T10:36:51;100368.47;;;9.59;100.00
59608;BME280;45426;44.726;10.390;2022-12-07T10:39:21;100363.00;;;9.68;100.00
59608;BME280;45426;44.726;10.390;2022-12-07T10:42:00;100344.75;;;10.82;100.00
59608;BME280;45426;44.726;10.390;2022-12-07T10:44:29;100353.31;;;11.05;100.00
59608;BME280;45426;44.726;10.390;2022-12-07T10:47:04;100344.97;;;11.60;100.00
59608;BME280;45426;44.726;10.390;2022-12-07T10:52:30;100350.06;;;9.95;100.00
59608;BME280;45426;44.726;10.390;2022-12-07T10:55:21;100336.41;;;10.12;100.00
59608;BME280;45426;44.726;10.390;2022-12-07T11:01:17;100337.38;;;9.86;100.00
59608;BME280;45426;44.726;10.390;2022-12-07T11:17:48;100296.78;;;11.60;100.00
59608;BME280;45426;44.726;10.390;2022-12-07T11:32:05;100281.53;;;10.61;100.00
59608;BME280;45426;44.726;10.390;2022-12-07T11:34:59;100275.38;;;11.34;100.00
59608;BME280;45426;44.726;10.390;2022-12-07T11:37:33;100267.16;;;11.71;100.00
59608;BME280;45426;44.726;10.390;2022-12-07T11:40:03;100266.50;;;11.50;100.00
59608;BME280;45426;44.726;10.390;2022-12-07T11:42:36;100257.78;;;12.09;100.00
59608;BME280;45426;44.726;10.390;2022-12-07T11:45:15;100259.50;;;11.36;100.00
59608;BME280;45426;44.726;10.390;2022-12-07T11:47:53;100257.19;;;10.64;100.00
59608;BME280;45426;44.726;10.390;2022-12-07T11:56:00;100251.13;;;11.04;100.00
59608;BME280;45426;44.726;10.390;2022-12-07T12:06:42;100266.91;;;10.53;100.00
59608;BME280;45426;44.726;10.390;2022-12-07T12:25:41;100251.97;;;9.63;100.00
59608;BME280;45426;44.726;10.390;2022-12-07T12:28:20;100254.81;;;9.16;100.00
59608;BME280;45426;44.726;10.390;2022-12-07T12:31:15;100248.63;;;9.06;100.00
59608;BME280;45426;44.726;10.390;2022-12-07T12:33:53;100240.66;;;9.10;100.00
59608;BME280;45426;44.726;10.390;2022-12-07T12:54:59;100256.66;;;7.77;100.00
59608;BME280;45426;44.726;10.390;2022-12-07T12:57:31;100256.66;;;8.12;100.00
59608;BME280;45426;44.726;10.390;2022-12-07T12:59:58;100251.88;;;8.00;100.00
59608;BME280;45426;44.726;10.390;2022-12-07T13:02:36;100250.75;;;8.27;100.00
59608;BME280;45426;44.726;10.390;2022-12-07T13:05:18;100249.03;;;8.14;100.00
59608;BME280;45426;44.726;10.390;2022-12-07T13:26:16;100230.91;;;7.97;100.00
59608;BME280;45426;44.726;10.390;2022-12-07T13:29:17;100233.56;;;7.80;100.00
59608;BME280;45426;44.726;10.390;2022-12-07T13:31:54;100226.03;;;8.38;100.00
59608;BME280;45426;44.726;10.390;2022-12-07T13:36:56;100231.97;;;8.31;100.00
59608;BME280;45426;44.726;10.390;2022-12-07T13:39:24;100224.19;;;8.12;100.00
59608;BME280;45426;44.726;10.390;2022-12-07T13:41:58;100228.50;;;7.78;100.00
59608;BME280;45426;44.726;10.390;2022-12-07T13:44:26;100244.09;;;7.64;100.00
59608;BME280;45426;44.726;10.390;2022-12-07T13:46:57;100240.28;;;7.73;100.00
59608;BME280;45426;44.726;10.390;2022-12-07T13:49:30;100247.91;;;7.80;100.00
59608;BME280;45426;44.726;10.390;2022-12-07T13:52:14;100240.56;;;7.72;100.00
59608;BME280;45426;44.726;10.390;2022-12-07T13:54:58;100236.25;;;7.36;100.00
59608;BME280;45426;44.726;10.390;2022-12-07T13:57:25;100235.03;;;7.60;100.00
59608;BME280;45426;44.726;10.390;2022-12-07T13:59:51;100229.94;;;7.84;100.00
59608;BME280;45426;44.726;10.390;2022-12-07T14:02:22;100225.94;;;7.64;100.00
59608;BME280;45426;44.726;10.390;2022-12-07T14:04:50;100224.66;;;7.96;100.00
59608;BME280;45426;44.726;10.390;2022-12-07T14:07:25;100229.13;;;7.92;100.00
59608;BME280;45426;44.726;10.390;2022-12-07T14:09:59;100229.91;;;7.67;100.00
59608;BME280;45426;44.726;10.390;2022-12-07T14:12:26;100234.06;;;7.64;100.00
59608;BME280;45426;44.726;10.390;2022-12-07T14:14:52;100228.94;;;7.45;100.00
59608;BME280;45426;44.726;10.390;2022-12-07T14:17:19;100234.00;;;7.29;100.00
59608;BME280;45426;44.726;10.390;2022-12-07T14:19:56;100229.91;;;7.49;100.00
59608;BME280;45426;44.726;10.390;2022-12-07T14:27:33;100239.59;;;6.93;100.00
59608;BME280;45426;44.726;10.390;2022-12-07T14:30:00;100237.84;;;7.37;100.00
59608;BME280;45426;44.726;10.390;2022-12-07T14:32:28;100224.84;;;7.74;100.00
59608;BME280;45426;44.726;10.390;2022-12-07T14:35:10;100229.94;;;7.84;100.00
59608;BME280;45426;44.726;10.390;2022-12-07T14:37:37;100245.19;;;6.96;100.00
59608;BME280;45426;44.726;10.390;2022-12-07T14:40:04;100234.31;;;7.28;100.00
59608;BME280;45426;44.726;10.390;2022-12-07T14:42:31;100239.91;;;6.91;100.00
59608;BME280;45426;44.726;10.390;2022-12-07T14:44:57;100243.19;;;7.19;100.00
59608;BME280;45426;44.726;10.390;2022-12-07T14:47:23;100243.09;;;6.85;100.00
59608;BME280;45426;44.726;10.390;2022-12-07T14:49:49;100249.91;;;7.39;100.00
59608;BME280;45426;44.726;10.390;2022-12-07T14:52:18;100251.31;;;6.79;100.00
59608;BME280;45426;44.726;10.390;2022-12-07T14:54:44;100261.75;;;6.72;100.00
59608;BME280;45426;44.726;10.390;2022-12-07T14:57:10;100257.91;;;6.96;100.00
59608;BME280;45426;44.726;10.390;2022-12-07T14:59:36;100254.38;;;6.95;100.00
59608;BME280;45426;44.726;10.390;2022-12-07T15:02:02;100243.84;;;7.16;100.00
59608;BME280;45426;44.726;10.390;2022-12-07T15:04:27;100246.50;;;7.08;100.00